createdAt,value
2023-02-06T00:00:54.316Z,102323.54
2023-02-06T00:03:20.853Z,102326.63
2023-02-06T00:05:58.254Z,102325.92
2023-02-06T00:08:25.940Z,102335.08
2023-02-06T00:10:53.055Z,102337.84
2023-02-06T00:13:19.744Z,102340.89
2023-02-06T00:15:46.384Z,102341.33
2023-02-06T00:18:13.060Z,102342.48
2023-02-06T00:20:39.616Z,102351.02
2023-02-06T00:23:06.145Z,102352.60
2023-02-06T00:25:32.711Z,102360.59
2023-02-06T00:27:59.294Z,102357.90
2023-02-06T00:30:25.858Z,102363.83
2023-02-06T00:32:52.529Z,102374.95
2023-02-06T00:35:19.021Z,102379.38
2023-02-06T00:37:45.548Z,102379.78
2023-02-06T00:40:12.186Z,102376.20
2023-02-06T00:42:38.639Z,102374.05
2023-02-06T00:45:05.743Z,102376.04
2023-02-06T00:47:32.269Z,102380.39
2023-02-06T00:49:58.715Z,102384.81
2023-02-06T00:52:25.197Z,102379.21
2023-02-06T00:54:52.102Z,102372.61
2023-02-06T00:57:18.745Z,102373.67
2023-02-06T00:59:45.203Z,102369.39
2023-02-06T01:02:11.814Z,102365.87
2023-02-06T01:04:38.434Z,102359.59
2023-02-06T01:07:04.916Z,102356.45
2023-02-06T01:09:31.419Z,102357.45
2023-02-06T01:11:58.048Z,102357.04
2023-02-06T01:14:24.548Z,102358.55
2023-02-06T01:16:51.039Z,102365.17
2023-02-06T01:19:17.529Z,102371.22
2023-02-06T01:21:43.981Z,102372.16
2023-02-06T01:24:10.478Z,102373.86
2023-02-06T01:26:36.976Z,102372.70
2023-02-06T01:29:04.097Z,102382.36
2023-02-06T01:31:31.158Z,102385.61
2023-02-06T01:33:59.559Z,102379.10
2023-02-06T01:36:26.701Z,102379.92
2023-02-06T01:38:53.622Z,102383.47
2023-02-06T01:41:22.714Z,102373.00
2023-02-06T01:44:08.228Z,102378.16
2023-02-06T01:46:34.846Z,102378.73
2023-02-06T01:49:01.945Z,102382.05
2023-02-06T01:51:30.260Z,102383.10
2023-02-06T01:54:02.293Z,102379.69
2023-02-06T01:56:34.643Z,102376.35
2023-02-06T01:59:01.820Z,102373.36
2023-02-06T02:01:29.610Z,102364.89
2023-02-06T02:04:02.051Z,102356.68
2023-02-06T02:06:29.170Z,102354.05
2023-02-06T02:08:58.338Z,102350.02
2023-02-06T02:11:37.744Z,102348.19
2023-02-06T02:14:07.707Z,102350.99
2023-02-06T02:16:46.432Z,102351.56
2023-02-06T02:19:47.995Z,102342.13
2023-02-06T02:22:26.358Z,102340.91
2023-02-06T02:25:13.910Z,102339.08
2023-02-06T02:28:18.460Z,102345.39
2023-02-06T02:30:50.854Z,102347.21
2023-02-06T02:33:19.945Z,102352.25
2023-02-06T02:35:55.230Z,102360.27
2023-02-06T02:38:45.821Z,102353.45
2023-02-06T02:41:33.590Z,102353.74
2023-02-06T02:44:17.743Z,102354.61
2023-02-06T02:46:49.487Z,102353.27
2023-02-06T02:49:21.725Z,102353.80
2023-02-06T02:51:49.293Z,102356.84
2023-02-06T02:54:15.863Z,102360.34
2023-02-06T02:56:42.428Z,102357.02
2023-02-06T02:59:14.829Z,102361.19
2023-02-06T03:01:48.702Z,102365.65
2023-02-06T03:04:25.365Z,102363.64
2023-02-06T03:07:00.729Z,102356.56
2023-02-06T03:09:57.243Z,102357.98
2023-02-06T03:12:56.059Z,102368.59
2023-02-06T03:15:53.458Z,102370.04
2023-02-06T03:18:28.536Z,102362.42
2023-02-06T03:20:55.415Z,102361.36
2023-02-06T03:23:31.104Z,102367.45
2023-02-06T03:26:01.966Z,102371.67
2023-02-06T03:28:35.860Z,102376.30
2023-02-06T03:31:07.622Z,102376.52
2023-02-06T03:33:40.317Z,102373.16
2023-02-06T03:36:08.131Z,102375.63
2023-02-06T03:38:34.663Z,102377.38
2023-02-06T03:41:01.811Z,102373.73
2023-02-06T03:43:30.403Z,102371.35
2023-02-06T03:46:02.041Z,102368.91
2023-02-06T03:48:33.532Z,102371.08
2023-02-06T03:51:04.811Z,102382.97
2023-02-06T03:53:35.004Z,102378.73
2023-02-06T03:56:08.775Z,102387.20
2023-02-06T03:58:35.557Z,102380.98
2023-02-06T04:01:05.087Z,102379.27
2023-02-06T04:03:32.265Z,102385.76
2023-02-06T04:05:59.318Z,102381.63
2023-02-06T04:08:25.942Z,102383.22
2023-02-06T04:10:52.409Z,102380.38
2023-02-06T04:13:18.887Z,102373.24
2023-02-06T04:15:45.406Z,102368.89
2023-02-06T04:18:11.930Z,102365.59
2023-02-06T04:20:38.453Z,102363.73
2023-02-06T04:23:04.922Z,102368.98
2023-02-06T04:25:31.415Z,102365.42
2023-02-06T04:27:57.884Z,102367.08
2023-02-06T04:30:25.053Z,102370.94
2023-02-06T04:32:51.825Z,102370.46
2023-02-06T04:35:18.344Z,102376.02
2023-02-06T04:37:44.819Z,102372.27
2023-02-06T04:40:11.964Z,102372.23
2023-02-06T04:42:38.427Z,102381.02
2023-02-06T04:45:05.368Z,102378.11
2023-02-06T04:47:32.009Z,102374.20
2023-02-06T04:49:58.454Z,102378.45
2023-02-06T04:52:25.007Z,102384.13
2023-02-06T04:54:51.479Z,102384.84
2023-02-06T04:57:18.023Z,102385.25
2023-02-06T04:59:44.474Z,102390.89
2023-02-06T05:02:10.913Z,102382.20
2023-02-06T05:04:37.421Z,102386.73
2023-02-06T05:07:05.509Z,102390.73
2023-02-06T05:09:32.227Z,102391.44
2023-02-06T05:11:58.876Z,102393.52
2023-02-06T05:14:25.398Z,102394.96
2023-02-06T05:16:51.860Z,102395.77
2023-02-06T05:19:18.380Z,102393.82
2023-02-06T05:21:44.830Z,102398.43
2023-02-06T05:24:11.944Z,102407.30
2023-02-06T05:26:38.660Z,102399.12
2023-02-06T05:29:05.548Z,102401.23
2023-02-06T05:31:32.149Z,102401.27
2023-02-06T05:33:58.792Z,102401.41
2023-02-06T05:36:25.318Z,102405.19
2023-02-06T05:38:51.834Z,102405.13
2023-02-06T05:41:18.762Z,102400.00
2023-02-06T05:43:45.322Z,102404.80
2023-02-06T05:46:12.041Z,102406.15
2023-02-06T05:48:39.266Z,102404.79
2023-02-06T05:51:06.085Z,102402.44
2023-02-06T05:53:32.611Z,102405.15
2023-02-06T05:55:59.128Z,102409.05
2023-02-06T05:58:25.612Z,102412.17
2023-02-06T06:00:52.115Z,102407.60
2023-02-06T06:03:18.634Z,102407.80
2023-02-06T06:05:45.737Z,102396.71
2023-02-06T06:08:12.526Z,102401.59
2023-02-06T06:10:39.030Z,102406.95
2023-02-06T06:13:06.120Z,102406.85
2023-02-06T06:15:32.618Z,102404.36
2023-02-06T06:17:59.096Z,102404.63
2023-02-06T06:20:25.709Z,102406.16
2023-02-06T06:22:52.177Z,102401.71
2023-02-06T06:25:18.707Z,102398.89
2023-02-06T06:27:45.339Z,102395.98
2023-02-06T06:30:12.688Z,102394.84
2023-02-06T06:32:39.244Z,102398.05
2023-02-06T06:35:06.866Z,102395.39
2023-02-06T06:37:33.353Z,102389.83
2023-02-06T06:39:59.906Z,102392.98
2023-02-06T06:42:26.454Z,102394.08
2023-02-06T06:44:52.942Z,102388.94
2023-02-06T06:47:19.399Z,102391.65
2023-02-06T06:49:45.863Z,102394.85
2023-02-06T06:52:24.093Z,102395.60
2023-02-06T06:54:52.474Z,102399.58
2023-02-06T06:57:19.999Z,102397.64
2023-02-06T06:59:46.622Z,102396.52
2023-02-06T07:02:14.969Z,102395.70
2023-02-06T07:04:42.148Z,102398.67
2023-02-06T07:07:09.370Z,102397.81
2023-02-06T07:09:35.891Z,102389.67
2023-02-06T07:12:02.380Z,102395.08
2023-02-06T07:14:28.958Z,102397.34
2023-02-06T07:16:55.483Z,102392.46
2023-02-06T07:19:22.021Z,102402.02
2023-02-06T07:21:48.488Z,102399.84
2023-02-06T07:24:14.965Z,102394.14
2023-02-06T07:26:41.599Z,102397.72
2023-02-06T07:29:08.143Z,102400.82
2023-02-06T07:31:34.783Z,102405.05
2023-02-06T07:34:01.306Z,102411.42
2023-02-06T07:36:27.800Z,102412.84
2023-02-06T07:38:54.251Z,102409.95
2023-02-06T07:41:20.757Z,102401.74
2023-02-06T07:43:47.253Z,102398.66
2023-02-06T07:46:13.814Z,102407.37
2023-02-06T07:48:40.297Z,102410.59
2023-02-06T07:51:08.578Z,102412.77
2023-02-06T07:53:36.068Z,102412.08
2023-02-06T07:56:09.912Z,102406.52
2023-02-06T07:58:36.403Z,102402.16
2023-02-06T08:01:04.139Z,102397.77
2023-02-06T08:03:30.788Z,102400.98
2023-02-06T08:05:57.396Z,102405.41
2023-02-06T08:08:23.985Z,102403.37
2023-02-06T08:10:50.520Z,102398.71
2023-02-06T08:13:17.029Z,102400.77
2023-02-06T08:15:43.618Z,102395.80
2023-02-06T08:18:10.116Z,102390.70
2023-02-06T08:20:36.575Z,102395.94
2023-02-06T08:23:03.076Z,102394.91
2023-02-06T08:25:29.568Z,102397.67
2023-02-06T08:27:56.522Z,102400.87
2023-02-06T08:30:23.520Z,102399.04
2023-02-06T08:32:50.046Z,102397.96
2023-02-06T08:35:16.813Z,102393.77
2023-02-06T08:37:43.327Z,102396.52
2023-02-06T08:40:10.697Z,102394.66
2023-02-06T08:42:37.174Z,102383.00
2023-02-06T08:45:03.994Z,102377.92
2023-02-06T08:47:30.532Z,102366.23
2023-02-06T08:49:57.022Z,102362.02
2023-02-06T08:52:23.528Z,102355.46
2023-02-06T08:54:51.184Z,102352.36
2023-02-06T08:57:17.651Z,102347.61
2023-02-06T08:59:44.108Z,102346.36
2023-02-06T09:02:11.448Z,102345.75
2023-02-06T09:04:38.255Z,102339.42
2023-02-06T09:07:05.107Z,102339.64
2023-02-06T09:09:31.557Z,102340.98
2023-02-06T09:11:58.053Z,102338.65
2023-02-06T09:14:24.526Z,102338.89
2023-02-06T09:16:51.024Z,102336.16
2023-02-06T09:19:17.476Z,102341.54
2023-02-06T09:21:43.963Z,102350.33
2023-02-06T09:24:10.496Z,102346.50
2023-02-06T09:26:57.977Z,102351.23
2023-02-06T09:29:26.170Z,102354.52
2023-02-06T09:31:52.630Z,102357.27
2023-02-06T09:34:19.143Z,102363.48
2023-02-06T09:36:45.628Z,102364.26
2023-02-06T09:39:12.580Z,102365.23
2023-02-06T09:41:47.590Z,102364.55
2023-02-06T09:44:19.869Z,102362.83
2023-02-06T09:46:59.237Z,102347.60
2023-02-06T09:49:42.826Z,102340.48
2023-02-06T09:52:40.418Z,102339.61
2023-02-06T09:55:18.481Z,102335.70
2023-02-06T09:58:01.151Z,102327.17
2023-02-06T10:00:39.829Z,102329.38
2023-02-06T10:03:37.719Z,102322.64
2023-02-06T10:06:29.151Z,102309.79
2023-02-06T10:08:58.520Z,102314.58
2023-02-06T10:11:37.128Z,102311.88
2023-02-06T10:14:41.683Z,102303.48
2023-02-06T10:17:28.277Z,102304.56
2023-02-06T10:20:10.376Z,102295.17
2023-02-06T10:23:02.005Z,102295.11
2023-02-06T10:25:34.929Z,102296.63
2023-02-06T10:28:14.928Z,102294.30
2023-02-06T10:30:56.680Z,102291.47
2023-02-06T10:33:36.149Z,102292.67
2023-02-06T10:36:27.510Z,102291.67
2023-02-06T10:39:28.068Z,102283.86
2023-02-06T10:42:00.045Z,102276.13
2023-02-06T10:44:32.169Z,102273.82
2023-02-06T10:46:59.446Z,102274.09
2023-02-06T10:49:34.832Z,102275.42
2023-02-06T10:52:09.405Z,102269.18
2023-02-06T10:54:43.176Z,102264.13
2023-02-06T10:57:20.145Z,102254.70
2023-02-06T10:59:49.653Z,102256.54
2023-02-06T11:02:28.221Z,102255.11
2023-02-06T11:05:05.356Z,102253.43
2023-02-06T11:07:37.898Z,102253.83
2023-02-06T11:10:06.027Z,102254.55
2023-02-06T11:12:38.996Z,102248.32
2023-02-06T11:15:39.363Z,102244.73
2023-02-06T11:18:12.237Z,102242.39
2023-02-06T11:20:42.394Z,102245.18
2023-02-06T11:23:27.428Z,102243.80
2023-02-06T11:26:13.739Z,102245.53
2023-02-06T11:29:00.980Z,102244.17
2023-02-06T11:31:58.055Z,102240.77
2023-02-06T11:34:32.445Z,102238.10
2023-02-06T11:37:01.906Z,102232.73
2023-02-06T11:39:34.025Z,102233.67
2023-02-06T11:42:04.366Z,102228.36
2023-02-06T11:44:39.996Z,102232.66
2023-02-06T11:47:39.247Z,102229.39
2023-02-06T11:50:14.870Z,102228.86
2023-02-06T11:52:46.362Z,102226.74
2023-02-06T11:55:33.594Z,102228.16
2023-02-06T11:58:19.202Z,102230.38
2023-02-06T12:00:51.602Z,102220.06
2023-02-06T12:03:44.712Z,102218.48
2023-02-06T12:06:34.892Z,102212.65
2023-02-06T12:09:04.121Z,102205.41
2023-02-06T12:11:33.320Z,102207.01
2023-02-06T12:14:19.251Z,102208.71
2023-02-06T12:16:46.906Z,102212.69
2023-02-06T12:19:21.206Z,102210.64
2023-02-06T12:21:57.873Z,102204.23
2023-02-06T12:24:31.958Z,102204.19
2023-02-06T12:27:02.339Z,102200.73
2023-02-06T12:29:40.239Z,102201.25
2023-02-06T12:32:09.586Z,102204.84
2023-02-06T12:34:53.448Z,102209.19
2023-02-06T12:37:34.704Z,102206.07
2023-02-06T12:40:01.732Z,102201.12
2023-02-06T12:42:39.755Z,102200.14
2023-02-06T12:47:30.890Z,102202.27
2023-02-06T12:50:14.124Z,102205.24
2023-02-06T12:52:51.536Z,102202.58
2023-02-06T12:55:22.743Z,102196.17
2023-02-06T12:57:50.062Z,102195.98
2023-02-06T13:00:32.231Z,102192.45
2023-02-06T13:03:20.640Z,102189.23
2023-02-06T13:05:52.012Z,102194.36
2023-02-06T13:08:22.446Z,102197.01
2023-02-06T13:11:11.449Z,102197.38
2023-02-06T13:13:40.471Z,102195.99
2023-02-06T13:16:08.622Z,102194.48
2023-02-06T13:18:35.089Z,102195.71
2023-02-06T13:21:26.723Z,102191.22
2023-02-06T13:24:01.992Z,102189.13
2023-02-06T13:26:46.821Z,102192.42
2023-02-06T13:29:25.384Z,102190.73
2023-02-06T13:32:10.773Z,102193.14
2023-02-06T13:35:12.646Z,102194.31
2023-02-06T13:37:47.811Z,102190.77
2023-02-06T13:40:23.383Z,102192.49
2023-02-06T13:43:04.265Z,102191.97
2023-02-06T13:45:41.024Z,102190.80
2023-02-06T13:48:24.761Z,102193.96
2023-02-06T13:51:00.331Z,102189.77
2023-02-06T13:54:03.891Z,102197.59
2023-02-06T13:56:51.463Z,102208.27
2023-02-06T13:59:24.977Z,102213.03
2023-02-06T14:01:52.685Z,102219.35
2023-02-06T14:04:25.114Z,102218.42
2023-02-06T14:07:18.103Z,102218.92
2023-02-06T14:10:10.402Z,102220.48
2023-02-06T14:12:42.857Z,102223.52
2023-02-06T14:15:22.269Z,102226.00
2023-02-06T14:17:56.989Z,102229.96
2023-02-06T14:20:57.347Z,102233.71
2023-02-06T14:23:50.806Z,102230.59
2023-02-06T14:26:32.679Z,102234.80
2023-02-06T14:29:30.646Z,102235.11
2023-02-06T14:32:13.930Z,102232.70
2023-02-06T14:35:00.628Z,102237.06
2023-02-06T14:37:46.128Z,102237.32
2023-02-06T14:40:15.717Z,102237.61
2023-02-06T14:42:45.353Z,102234.02
2023-02-06T14:45:23.832Z,102239.52
2023-02-06T14:47:52.045Z,102237.17
2023-02-06T14:50:20.531Z,102241.61
2023-02-06T14:52:55.293Z,102245.02
2023-02-06T14:55:34.293Z,102243.02
2023-02-06T14:58:01.675Z,102250.11
2023-02-06T15:00:28.959Z,102243.52
2023-02-06T15:03:13.579Z,102241.58
2023-02-06T15:05:40.205Z,102246.50
2023-02-06T15:08:07.782Z,102251.09
2023-02-06T15:10:37.939Z,102256.59
2023-02-06T15:13:04.612Z,102268.84
2023-02-06T15:15:33.460Z,102272.27
2023-02-06T15:18:01.492Z,102269.54
2023-02-06T15:20:43.406Z,102271.02
2023-02-06T15:23:24.968Z,102271.12
2023-02-06T15:26:00.163Z,102275.23
2023-02-06T15:28:30.040Z,102276.14
2023-02-06T15:30:58.377Z,102274.54
2023-02-06T15:33:31.344Z,102273.49
2023-02-06T15:36:01.485Z,102274.38
2023-02-06T15:38:30.789Z,102274.56
2023-02-06T15:41:07.226Z,102278.97
2023-02-06T15:43:35.376Z,102281.52
2023-02-06T15:46:04.511Z,102283.76
2023-02-06T15:48:34.012Z,102286.30
2023-02-06T15:51:26.185Z,102284.96
2023-02-06T15:54:09.906Z,102287.57
2023-02-06T15:56:40.820Z,102291.86
2023-02-06T15:59:18.634Z,102292.54
2023-02-06T16:01:45.208Z,102291.36
2023-02-06T16:04:33.228Z,102296.27
2023-02-06T16:07:21.529Z,102299.90
2023-02-06T16:09:52.327Z,102305.01
2023-02-06T16:12:19.208Z,102314.23
2023-02-06T16:14:58.053Z,102312.86
2023-02-06T16:17:35.607Z,102315.39
2023-02-06T16:20:24.952Z,102319.81
2023-02-06T16:22:51.431Z,102323.34
2023-02-06T16:25:30.159Z,102324.14
2023-02-06T16:27:58.235Z,102329.60
2023-02-06T16:30:26.719Z,102328.67
2023-02-06T16:32:55.463Z,102331.52
2023-02-06T16:35:23.327Z,102326.99
2023-02-06T16:37:51.217Z,102328.83
2023-02-06T16:40:18.124Z,102331.88
2023-02-06T16:42:45.133Z,102328.95
2023-02-06T16:45:21.174Z,102333.30
2023-02-06T16:47:48.395Z,102337.33
2023-02-06T16:50:15.807Z,102340.88
2023-02-06T16:52:50.744Z,102341.35
2023-02-06T16:55:25.388Z,102340.02
2023-02-06T16:57:54.735Z,102343.75
2023-02-06T17:00:33.896Z,102340.95
2023-02-06T17:03:00.745Z,102345.14
2023-02-06T17:05:28.832Z,102341.74
2023-02-06T17:07:55.882Z,102342.13
2023-02-06T17:10:25.901Z,102341.00
2023-02-06T17:12:52.733Z,102340.93
2023-02-06T17:15:22.199Z,102342.91
2023-02-06T17:17:48.743Z,102341.85
2023-02-06T17:20:37.647Z,102342.31
2023-02-06T17:23:07.358Z,102336.39
2023-02-06T17:25:34.423Z,102334.80
2023-02-06T17:28:01.460Z,102337.08
2023-02-06T17:30:28.143Z,102339.98
2023-02-06T17:32:54.767Z,102337.48
2023-02-06T17:35:21.316Z,102340.98
2023-02-06T17:37:47.842Z,102341.38
2023-02-06T17:40:20.395Z,102343.75
2023-02-06T17:42:47.608Z,102341.13
2023-02-06T17:45:14.160Z,102342.20
2023-02-06T17:47:40.758Z,102341.06
2023-02-06T17:50:08.033Z,102348.52
2023-02-06T17:52:34.582Z,102350.02
2023-02-06T17:55:01.105Z,102350.02
2023-02-06T17:57:28.295Z,102350.83
2023-02-06T17:59:54.776Z,102350.27
2023-02-06T18:02:21.320Z,102352.15
2023-02-06T18:04:52.111Z,102356.58
2023-02-06T18:07:18.626Z,102359.42
2023-02-06T18:09:45.123Z,102363.80
2023-02-06T18:12:11.686Z,102363.00
2023-02-06T18:14:38.248Z,102369.17
2023-02-06T18:17:04.743Z,102368.35
2023-02-06T18:19:31.354Z,102370.96
2023-02-06T18:21:57.903Z,102374.59
2023-02-06T18:24:24.411Z,102378.35
2023-02-06T18:26:50.881Z,102376.65
2023-02-06T18:29:17.450Z,102379.42
2023-02-06T18:31:43.966Z,102380.77
2023-02-06T18:34:10.842Z,102378.71
2023-02-06T18:36:37.896Z,102378.99
2023-02-06T18:39:05.532Z,102382.26
2023-02-06T18:41:32.453Z,102380.41
2023-02-06T18:44:08.260Z,102382.58
2023-02-06T18:46:35.330Z,102383.48
2023-02-06T18:49:02.082Z,102381.75
2023-02-06T18:51:28.534Z,102381.15
2023-02-06T18:53:55.268Z,102383.30
2023-02-06T18:56:21.774Z,102388.42
2023-02-06T18:58:48.262Z,102391.85
2023-02-06T19:01:17.523Z,102395.03
2023-02-06T19:03:44.214Z,102402.90
2023-02-06T19:06:19.566Z,102408.05
2023-02-06T19:08:46.832Z,102409.16
2023-02-06T19:11:13.590Z,102410.83
2023-02-06T19:13:40.222Z,102411.70
2023-02-06T19:16:12.352Z,102407.61
2023-02-06T19:18:42.043Z,102407.27
2023-02-06T19:21:11.419Z,102407.80
2023-02-06T19:23:39.304Z,102415.59
2023-02-06T19:26:08.086Z,102425.50
2023-02-06T19:28:36.172Z,102422.68
2023-02-06T19:31:04.160Z,102427.32
2023-02-06T19:33:32.871Z,102429.91
2023-02-06T19:35:59.475Z,102431.34
2023-02-06T19:38:26.056Z,102430.63
2023-02-06T19:40:52.528Z,102437.26
2023-02-06T19:43:19.420Z,102438.70
2023-02-06T19:45:45.902Z,102435.94
2023-02-06T19:48:12.382Z,102442.04
2023-02-06T19:50:40.270Z,102444.73
2023-02-06T19:53:06.858Z,102445.92
2023-02-06T19:55:36.444Z,102445.73
2023-02-06T19:58:03.346Z,102448.95
2023-02-06T20:00:29.828Z,102447.98
2023-02-06T20:02:56.324Z,102450.33
2023-02-06T20:05:22.761Z,102454.66
2023-02-06T20:07:49.439Z,102452.94
2023-02-06T20:10:15.910Z,102455.20
2023-02-06T20:12:42.768Z,102457.15
2023-02-06T20:15:13.788Z,102456.52
2023-02-06T20:17:40.386Z,102466.63
2023-02-06T20:20:07.459Z,102475.20
2023-02-06T20:22:34.496Z,102478.07
2023-02-06T20:25:00.998Z,102477.00
2023-02-06T20:27:27.710Z,102481.40
2023-02-06T20:29:54.289Z,102481.12
2023-02-06T20:32:20.880Z,102480.16
2023-02-06T20:34:47.356Z,102478.23
2023-02-06T20:37:14.156Z,102479.10
2023-02-06T20:39:40.638Z,102478.84
2023-02-06T20:42:07.113Z,102483.92
2023-02-06T20:44:33.663Z,102487.59
2023-02-06T20:47:00.228Z,102488.88
2023-02-06T20:49:28.649Z,102496.39
2023-02-06T20:51:55.742Z,102497.07
2023-02-06T20:54:23.019Z,102494.77
2023-02-06T20:56:49.960Z,102490.25
2023-02-06T20:59:18.314Z,102489.63
2023-02-06T21:01:45.847Z,102490.76
2023-02-06T21:04:15.922Z,102503.58
2023-02-06T21:06:43.496Z,102503.33
2023-02-06T21:09:10.752Z,102505.23
2023-02-06T21:11:41.292Z,102505.87
2023-02-06T21:14:08.643Z,102510.94
2023-02-06T21:16:36.980Z,102516.92
2023-02-06T21:19:07.095Z,102521.61
2023-02-06T21:21:33.948Z,102523.05
2023-02-06T21:24:00.446Z,102527.77
2023-02-06T21:26:27.972Z,102525.70
2023-02-06T21:28:55.022Z,102521.63
2023-02-06T21:31:28.488Z,102522.05
2023-02-06T21:33:55.044Z,102516.27
2023-02-06T21:36:21.496Z,102513.77
2023-02-06T21:38:48.219Z,102511.75
2023-02-06T21:41:18.304Z,102512.02
2023-02-06T21:43:45.723Z,102516.62
2023-02-06T21:46:14.722Z,102514.85
2023-02-06T21:48:41.683Z,102517.65
2023-02-06T21:51:13.749Z,102513.14
2023-02-06T21:53:41.275Z,102516.23
2023-02-06T21:56:15.096Z,102521.56
2023-02-06T21:58:41.697Z,102518.61
2023-02-06T22:01:14.094Z,102525.93
2023-02-06T22:03:40.592Z,102526.48
2023-02-06T22:06:07.363Z,102523.69
2023-02-06T22:08:35.725Z,102521.48
2023-02-06T22:11:02.226Z,102521.75
2023-02-06T22:13:28.733Z,102529.42
2023-02-06T22:15:55.235Z,102529.43
2023-02-06T22:18:21.756Z,102528.46
2023-02-06T22:20:48.307Z,102534.84
2023-02-06T22:23:14.803Z,102544.36
2023-02-06T22:25:46.685Z,102547.41
2023-02-06T22:28:13.183Z,102542.45
2023-02-06T22:30:40.935Z,102543.28
2023-02-06T22:33:07.521Z,102543.56
2023-02-06T22:35:36.610Z,102544.58
2023-02-06T22:38:03.251Z,102540.05
2023-02-06T22:40:29.716Z,102547.56
2023-02-06T22:42:56.257Z,102548.82
2023-02-06T22:45:22.792Z,102549.11
2023-02-06T22:47:49.253Z,102545.74
2023-02-06T22:50:15.865Z,102548.94
2023-02-06T22:52:42.864Z,102543.50
2023-02-06T22:55:10.087Z,102546.73
2023-02-06T22:57:36.575Z,102545.45
2023-02-06T23:00:05.897Z,102543.73
2023-02-06T23:02:32.339Z,102543.41
2023-02-06T23:04:58.826Z,102547.48
2023-02-06T23:07:25.366Z,102544.10
2023-02-06T23:09:52.016Z,102547.48
2023-02-06T23:12:18.466Z,102550.56
2023-02-06T23:14:44.948Z,102550.20
2023-02-06T23:17:11.463Z,102545.56
2023-02-06T23:19:39.992Z,102541.04
2023-02-06T23:22:06.554Z,102551.27
2023-02-06T23:24:33.088Z,102559.28
2023-02-06T23:26:59.581Z,102552.40
2023-02-06T23:29:26.089Z,102561.30
2023-02-06T23:31:52.814Z,102561.30
2023-02-06T23:34:23.123Z,102556.77
2023-02-06T23:36:49.629Z,102560.17
2023-02-06T23:39:16.123Z,102560.90
2023-02-06T23:41:42.603Z,102565.85
2023-02-06T23:44:10.609Z,102564.34
2023-02-06T23:46:38.845Z,102559.21
2023-02-06T23:49:06.363Z,102558.73
2023-02-06T23:51:33.021Z,102562.31
2023-02-06T23:53:59.490Z,102560.23
2023-02-06T23:56:28.462Z,102554.27
2023-02-06T23:58:56.408Z,102555.61
